Time;durP1;ratioP1;P1;durP2;ratioP2;P2;SDS_P1;SDS_P2;PMS_P1;PMS_P2;Temp;Humidity;BMP_temperature;BMP_pressure;BME280_temperature;BME280_humidity;BME280_pressure;Samples;Min_cycle;Max_cycle;Signal;HPM_P1;HPM_P2
2021/12/22 05:31:08;;;;;;;23.83;13.60;;;;;;;-3.08;63.94;95133.20;828026;71;29800;-79
2021/12/22 05:46:15;;;;;;;22.65;15.35;;;;;;;-2.75;63.64;95139.85;833774;71;32723;-77
2021/12/22 06:01:09;;;;;;;27.02;13.80;;;;;;;-2.64;63.38;95140.59;833754;71;29951;-77
2021/12/22 06:16:10;;;;;;;24.43;14.30;;;;;;;-2.56;63.36;95146.58;827870;71;30353;-77
2021/12/22 06:31:19;;;;;;;20.70;13.25;;;;;;;-2.45;62.53;95171.74;833713;71;32799;-76
2021/12/22 06:46:29;;;;;;;23.45;14.05;;;;;;;-1.17;60.10;95165.50;815091;71;33442;-78
2021/12/22 07:01:19;;;;;;;23.67;17.25;;;;;;;-0.07;57.75;95173.97;819096;71;33490;-78
2021/12/22 07:16:14;;;;;;;26.23;16.90;;;;;;;1.60;54.60;95149.08;822956;71;29751;-77
2021/12/22 07:31:08;;;;;;;30.90;20.05;;;;;;;3.12;51.12;95162.86;828010;71;29668;-78
2021/12/22 07:46:09;;;;;;;34.88;22.45;;;;;;;4.89;47.22;95145.09;827867;71;30281;-77
2021/12/22 08:01:12;;;;;;;25.50;18.65;;;;;;;3.88;45.94;95150.00;828002;71;31973;-77
2021/12/22 08:16:09;;;;;;;20.20;15.00;;;;;;;2.31;48.59;95175.36;828039;71;30177;-79
2021/12/22 08:31:12;;;;;;;21.80;14.95;;;;;;;3.12;47.29;95180.52;820653;71;32118;-77
2021/12/22 08:46:09;;;;;;;20.80;14.00;;;;;;;2.12;47.20;95126.20;826214;71;30313;-75
2021/12/22 09:01:19;;;;;;;29.77;19.65;;;;;;;3.12;47.09;95187.48;825387;71;33368;-77
2021/12/22 09:16:14;;;;;;;33.05;22.02;;;;;;;2.82;46.89;95183.16;820587;71;32900;-78
2021/12/22 09:31:10;;;;;;;34.55;21.48;;;;;;;3.19;46.63;95174.71;827811;71;30328;-76
2021/12/22 09:46:19;;;;;;;34.95;21.68;;;;;;;4.30;45.17;95158.35;821184;71;32869;-76
2021/12/22 10:01:14;;;;;;;35.38;22.50;;;;;;;4.75;44.11;95147.19;821155;71;32075;-75
2021/12/22 10:16:19;;;;;;;33.18;21.52;;;;;;;5.89;42.13;95131.41;820676;71;32823;-79
2021/12/22 10:31:13;;;;;;;35.28;23.35;;;;;;;5.42;41.20;95130.80;828673;71;32019;-78
2021/12/22 10:46:16;;;;;;;29.23;21.30;;;;;;;3.54;43.83;95127.75;832494;70;30265;-76
2021/12/22 11:01:21;;;;;;;31.93;21.60;;;;;;;2.55;46.28;95107.61;827284;71;33144;-77
2021/12/22 11:16:13;;;;;;;34.75;22.50;;;;;;;2.26;47.57;95089.29;827898;71;29811;-79
2021/12/22 11:31:10;;;;;;;39.53;25.20;;;;;;;3.17;46.62;95093.77;827719;71;30092;-78
2021/12/22 11:46:14;;;;;;;35.75;22.58;;;;;;;3.43;45.57;95085.25;833639;71;33284;-80
2021/12/22 12:01:15;;;;;;;38.58;24.57;;;;;;;3.38;46.17;95082.54;833682;71;32774;-78
2021/12/22 12:31:08;;;;;;;33.23;20.15;;;;;;;3.82;45.69;95053.06;833759;71;30044;-78
2021/12/22 12:46:29;;;;;;;33.23;22.05;;;;;;;3.95;45.64;95030.73;827211;71;33568;-78
2021/12/22 13:01:09;;;;;;;32.60;21.75;;;;;;;3.87;45.68;95034.98;834227;71;30188;-78
2021/12/22 13:16:18;;;;;;;34.60;21.75;;;;;;;4.02;45.46;95033.19;828539;71;31986;-80
2021/12/22 13:31:15;;;;;;;30.95;19.30;;;;;;;3.85;46.00;95036.23;827019;71;32823;-78
2021/12/22 13:46:12;;;;;;;27.75;16.48;;;;;;;3.68;46.39;95052.53;827923;71;30119;-78
2021/12/22 14:01:37;;;;;;;18.48;12.30;;;;;;;3.17;47.23;95060.06;829208;71;32757;-77
2021/12/22 14:16:08;;;;;;;18.65;10.35;;;;;;;2.74;48.06;95058.60;833748;71;30217;-79
2021/12/22 14:31:14;;;;;;;16.62;9.98;;;;;;;2.38;49.07;95067.32;827159;71;33254;-77
2021/12/22 14:46:09;;;;;;;13.30;9.48;;;;;;;2.08;49.45;95084.16;828009;71;30276;-79
2021/12/22 15:01:19;;;;;;;8.20;6.28;;;;;;;1.77;49.36;95089.31;827243;71;33164;-79
2021/12/22 15:16:16;;;;;;;10.98;7.00;;;;;;;1.49;49.90;95087.23;833782;71;32739;-77
2021/12/22 15:31:13;;;;;;;21.85;11.65;;;;;;;1.28;50.70;95098.80;834016;71;31915;-77
2021/12/22 15:46:10;;;;;;;23.85;14.35;;;;;;;1.13;51.61;95103.51;828027;71;30248;-79
2021/12/22 16:01:09;;;;;;;30.37;19.50;;;;;;;1.04;52.42;95118.50;828646;71;29381;-79
